Elisalex Schulte — 9V9154 — position and weather

sailwx.info

Track history (hours):
 
Tides and Currents Weather Stations Pressure Air Temp Water Temp Dewpoint Dewpoint Depression Visibility Wind Speed Wind Dir Waves Ship Positions

Elisalex Schulte

Last reported at 2018-Feb-19 17:30 UTC. Time now 2018-Feb-19 17:59 UTC.
Position N 49°28' E 000°07'.

Length 144 m; draft 6.2 m.

Type: Tanker. MMSI: 563052000.

Date/timePositionNaut miles runAvg speedWind from/ knotsBaromVisibWave heightAir tempDewpointWater temp
2018-Feb-19 17:30N 49°28' E 000°07'2 3.8
2018-Feb-19 17:00N 49°29' E 000°10'0 0.3
2018-Feb-19 16:30N 49°29' E 000°11'0 0.6
2018-Feb-19 15:59N 49°29' E 000°11'0 0.0
2018-Feb-19 15:29N 49°29' E 000°11'0 0.0
2018-Feb-19 14:59N 49°29' E 000°11'0 0.0
2018-Feb-19 14:29N 49°29' E 000°11'0 0.0
2018-Feb-19 13:59N 49°29' E 000°11'0 0.0
2018-Feb-19 13:29N 49°29' E 000°11'0 0.0
2018-Feb-19 12:59N 49°29' E 000°11'0 0.0
2018-Feb-19 12:29N 49°29' E 000°11'0 0.0
2018-Feb-19 11:59N 49°29' E 000°11'0 0.0
2018-Feb-19 11:29N 49°29' E 000°11'0 0.0
2018-Feb-19 10:59N 49°29' E 000°11'0 0.0
2018-Feb-19 10:29N 49°29' E 000°11'0 0.0
2018-Feb-19 09:56N 49°29' E 000°11'0 0.0
2018-Feb-19 09:29N 49°29' E 000°11'0 0.0
2018-Feb-19 08:56N 49°29' E 000°11'0 0.0
2018-Feb-19 08:29N 49°29' E 000°11'0 0.0
2018-Feb-19 07:59N 49°29' E 000°11'0 0.0
2018-Feb-19 07:29N 49°29' E 000°11'0 0.0
2018-Feb-19 06:59N 49°29' E 000°11'0 0.0
2018-Feb-19 06:29N 49°29' E 000°11'0 0.0
2018-Feb-19 05:59N 49°29' E 000°11'0 0.0
2018-Feb-19 05:29N 49°29' E 000°11'0 0.0
2018-Feb-19 04:59N 49°29' E 000°11'0 0.0
2018-Feb-19 04:29N 49°29' E 000°11'0 0.0
2018-Feb-19 03:59N 49°29' E 000°11'0 0.0
2018-Feb-19 03:29N 49°29' E 000°11'0 0.0
2018-Feb-19 02:59N 49°29' E 000°11'0 0.0
2018-Feb-19 02:29N 49°29' E 000°11'0 0.0
2018-Feb-19 01:59N 49°29' E 000°11'0 0.0
2018-Feb-19 01:29N 49°29' E 000°11'0 0.0
2018-Feb-19 00:59N 49°29' E 000°11'0 0.0
2018-Feb-19 00:29N 49°29' E 000°11'0 0.0
2018-Feb-18 23:59N 49°29' E 000°11'0 0.0
2018-Feb-18 23:29N 49°29' E 000°11'0 0.0
2018-Feb-18 22:59N 49°29' E 000°11'0 0.0
2018-Feb-18 22:29N 49°29' E 000°11'0 0.0
2018-Feb-18 21:59N 49°29' E 000°11'0 0.0
2018-Feb-18 21:29N 49°29' E 000°11'0 0.0
2018-Feb-18 20:59N 49°29' E 000°11'0 0.0
2018-Feb-18 20:29N 49°29' E 000°11'0 0.0
2018-Feb-18 19:59N 49°29' E 000°11'0 0.0
2018-Feb-18 19:30N 49°29' E 000°11'1 1.1
2018-Feb-18 19:00N 49°29' E 000°10'0 0.0
2018-Feb-18 18:30N 49°29' E 000°10'2 4.2
2018-Feb-18 18:00N 49°29' E 000°07'5 9.1
2018-Feb-18 17:30N 49°30' E 000°01'4 8.8
2018-Feb-18 17:00N 49°31' W 000°06'3 5.6
2018-Feb-18 16:30N 49°32' W 000°10'4 8.9
2018-Feb-18 16:00N 49°37' W 000°11'611.1
2018-Feb-18 15:30N 49°42' W 000°11'611.9
2018-Feb-18 15:00N 49°48' W 000°09'611.8
2018-Feb-18 14:29N 49°54' W 000°08'611.9
2018-Feb-18 14:00N 49°60' W 000°07'611.8
2018-Feb-18 13:30N 50°06' W 000°07'611.6
2018-Feb-18 13:00N 50°11' W 000°06'811.4
2018-Feb-18 12:17N 50°20' W 000°04'311.4
2018-Feb-18 12:00N 50°23' W 000°04'5 9.8
2018-Feb-18 11:30N 50°27' W 000°01'510.2
2018-Feb-18 11:00N 50°30' E 000°06'7 9.6
2018-Feb-18 10:19N 50°33' E 000°16'3 9.7
2018-Feb-18 10:00N 50°34' E 000°20'510.0
2018-Feb-18 09:30N 50°36' E 000°27'510.7
2018-Feb-18 09:00N 50°39' E 000°34'611.5
2018-Feb-18 08:30N 50°42' E 000°42'612.5
2018-Feb-18 08:00N 50°45' E 000°50'713.1
2018-Feb-18 07:30N 50°49' E 000°59'713.4
2018-Feb-18 07:00N 50°53' E 001°07'713.5
2018-Feb-18 06:30N 50°58' E 001°15'713.4
2018-Feb-18 06:00N 51°02' E 001°23'612.0
2018-Feb-18 05:30N 51°06' E 001°30'611.4
2018-Feb-18 05:00N 51°10' E 001°37'510.7
2018-Feb-18 04:30N 51°13' E 001°44'510.6
2018-Feb-18 04:00N 51°17' E 001°48'510.1
2018-Feb-18 03:30N 51°22' E 001°52'510.1
2018-Feb-18 03:00N 51°26' E 001°56'510.4
2018-Feb-18 02:30N 51°30' E 002°02'510.7
2018-Feb-18 02:00N 51°34' E 002°07'510.6
2018-Feb-18 01:30N 51°38' E 002°13'611.2
2018-Feb-18 01:00N 51°42' E 002°19'611.8
2018-Feb-18 00:28N 51°47' E 002°26'612.6
2018-Feb-17 23:59N 51°51' E 002°33'134 9.4
2018-Feb-17 09:47N 53°40' E 000°23'714.0
2018-Feb-17 09:19N 53°34' E 000°17'411.1
2018-Feb-17 09:00N 53°32' E 000°12'610.4
2018-Feb-17 08:28N 53°35' E 000°04'511.2
2018-Feb-17 08:00N 53°37' W 000°05'3 6.8
2018-Feb-17 07:30N 53°38' W 000°10'0 0.0
2018-Feb-17 03:20N 53°38' W 000°10'0 0.0
2018-Feb-17 02:50N 53°38' W 000°10'0 0.0
2018-Feb-17 02:29N 53°38' W 000°10'0 0.0
2018-Feb-17 01:59N 53°38' W 000°10'0 0.0
2018-Feb-17 01:29N 53°38' W 000°10'0 0.0
2018-Feb-17 00:59N 53°38' W 000°10'0 0.0
2018-Feb-17 00:29N 53°38' W 000°10'0 0.0
2018-Feb-16 23:59N 53°38' W 000°10'0 0.0
2018-Feb-16 23:29N 53°38' W 000°10'0 0.0
2018-Feb-16 22:53N 53°38' W 000°10'0 0.0
2018-Feb-16 22:26N 53°38' W 000°10'0 0.0
2018-Feb-16 21:56N 53°38' W 000°10'0 0.0
2018-Feb-16 21:02N 53°38' W 000°10'0 0.0
2018-Feb-16 20:47N 53°38' W 000°10'0 0.0
2018-Feb-16 20:08N 53°38' W 000°10'0 0.0
2018-Feb-16 19:59N 53°38' W 000°10'0 0.0
2018-Feb-16 19:26N 53°38' W 000°10'0 0.0
2018-Feb-16 17:53N 53°38' W 000°10'0 0.0
2018-Feb-16 17:29N 53°38' W 000°10'0 0.0
2018-Feb-16 16:26N 53°38' W 000°10'0 0.0
2018-Feb-16 15:56N 53°38' W 000°10'0 0.0
2018-Feb-16 15:23N 53°38' W 000°10'0 0.0
2018-Feb-16 14:59N 53°38' W 000°10'0 0.0
2018-Feb-16 14:29N 53°38' W 000°10'0 0.0
2018-Feb-16 13:59N 53°38' W 000°10'0 0.0
2018-Feb-16 13:20N 53°38' W 000°10'0 0.1
2018-Feb-16 13:00N 53°38' W 000°10'1 2.7
2018-Feb-16 12:30N 53°38' W 000°07'4 8.7
2018-Feb-16 12:00N 53°35' W 000°01'510.0
2018-Feb-16 11:30N 53°34' E 000°07'4 8.3
2018-Feb-16 11:00N 53°33' E 000°14'28 6.2
2018-Feb-16 06:26N 54°01' E 000°07'614.0
2018-Feb-16 06:00N 54°07' E 000°03'714.2
2018-Feb-16 05:30N 54°13' W 000°03'714.4
2018-Feb-16 05:00N 54°20' W 000°08'714.4
2018-Feb-16 04:30N 54°26' W 000°13'714.4
2018-Feb-16 04:00N 54°33' W 000°19'714.3
2018-Feb-16 03:30N 54°39' W 000°24'4013.7
2018-Feb-16 00:34N 55°15' W 000°53'113.4
2018-Feb-16 00:30N 55°16' W 000°54'3512.4
2018-Feb-15 21:38N 55°47' W 001°25'211.5
2018-Feb-15 21:30N 55°48' W 001°27'611.6
2018-Feb-15 21:00N 55°52' W 001°35'611.8
2018-Feb-15 20:30N 55°55' W 001°44'611.8
2018-Feb-15 19:59N 55°58' W 001°53'612.0
2018-Feb-15 19:30N 56°02' W 002°01'612.1
2018-Feb-15 19:00N 56°05' W 002°10'612.1
2018-Feb-15 18:30N 56°08' W 002°20'713.1
2018-Feb-15 18:00N 56°08' W 002°32'713.7
2018-Feb-15 17:30N 56°07' W 002°44'713.8
2018-Feb-15 17:00N 56°05' W 002°56'612.4
2018-Feb-15 16:30N 56°03' W 003°06'5 9.3
2018-Feb-15 16:00N 56°02' W 003°14'510.8
2018-Feb-15 15:30N 56°00' W 003°23'0 0.0
2018-Feb-13 23:36N 56°00' W 003°23'1 9.7
2018-Feb-13 23:28N 56°01' W 003°21'4 9.4
2018-Feb-13 23:00N 56°02' W 003°14'4 8.4
2018-Feb-13 22:30N 56°03' W 003°06'4 8.0
2018-Feb-13 22:00N 56°05' W 002°60'4 7.2
2018-Feb-13 21:30N 56°06' W 002°53'3 6.0
2018-Feb-13 21:00N 56°07' W 002°48'3 6.4
2018-Feb-13 20:30N 56°07' W 002°43'4 7.7
2018-Feb-13 20:00N 56°08' W 002°36'4 8.3
2018-Feb-13 19:30N 56°09' W 002°28'4 8.6
2018-Feb-13 19:00N 56°09' W 002°21'4 8.6
2018-Feb-13 18:30N 56°09' W 002°13'5 9.5
2018-Feb-13 18:00N 56°10' W 002°05'5 9.8
2018-Feb-13 17:30N 56°10' W 001°56'5 9.7
2018-Feb-13 17:00N 56°11' W 001°47'409 9.2
2018-Feb-11 20:23N 57°49' E 010°23'512.2
2018-Feb-11 20:00N 57°49' E 010°31'612.3
2018-Feb-11 19:30N 57°48' E 010°42'611.9
2018-Feb-11 19:00N 57°45' E 010°52'612.6
2018-Feb-11 18:30N 57°41' E 011°01'613.1
2018-Feb-11 18:00N 57°36' E 011°10'713.3
2018-Feb-11 17:30N 57°32' E 011°19'612.8
2018-Feb-11 17:00N 57°27' E 011°27'713.2
2018-Feb-11 16:30N 57°21' E 011°31'713.7
2018-Feb-11 16:00N 57°14' E 011°35'713.5
2018-Feb-11 15:30N 57°08' E 011°39'713.0
2018-Feb-11 14:56N 57°01' E 011°44'4912.8
2018-Feb-11 11:06N 56°15' E 012°14'112.9
2018-Feb-11 10:59N 56°14' E 012°16'713.9
2018-Feb-11 10:31N 56°10' E 012°26'714.5
2018-Feb-11 10:01N 56°05' E 012°36'612.6
2018-Feb-11 09:30N 55°60' E 012°41'510.2
2018-Feb-11 09:00N 55°55' E 012°44'510.4
2018-Feb-11 08:30N 55°50' E 012°46'5 9.9
2018-Feb-11 08:00N 55°46' E 012°52'5 9.3
2018-Feb-11 07:30N 55°42' E 012°54'5 9.1
2018-Feb-11 07:00N 55°39' E 012°60'1 1.8
2018-Feb-11 06:29N 55°38' E 013°01'0 0.0
2018-Feb-11 05:59N 55°38' E 013°01'0 0.0
2018-Feb-11 05:29N 55°38' E 013°01'0 0.0
2018-Feb-11 04:59N 55°38' E 013°01'0 0.0
2018-Feb-11 04:29N 55°38' E 013°01'0 0.0
2018-Feb-11 03:59N 55°38' E 013°01'0 0.0
2018-Feb-11 03:29N 55°38' E 013°01'0 0.0
2018-Feb-11 02:53N 55°38' E 013°01'0 0.0
2018-Feb-11 02:26N 55°38' E 013°01'0 0.0
2018-Feb-11 01:59N 55°38' E 013°01'0 0.0
2018-Feb-11 01:29N 55°38' E 013°01'0 0.0
2018-Feb-11 00:59N 55°38' E 013°01'0 0.0
2018-Feb-11 00:29N 55°38' E 013°01'0 0.0
2018-Feb-10 23:56N 55°38' E 013°01'0 0.0
2018-Feb-10 23:29N 55°38' E 013°01'0 0.0
2018-Feb-10 22:59N 55°38' E 013°01'0 0.0
2018-Feb-10 22:26N 55°38' E 013°01'0 0.0
2018-Feb-10 21:41N 55°38' E 013°01'0 0.0
2018-Feb-10 21:23N 55°38' E 013°01'0 0.0
2018-Feb-10 20:56N 55°38' E 013°01'0 0.0
2018-Feb-10 20:29N 55°38' E 013°01'0 0.0
2018-Feb-10 19:59N 55°38' E 013°01'0 0.0
2018-Feb-10 19:29N 55°38' E 013°01'0 0.0
2018-Feb-10 18:59N 55°38' E 013°01'0 0.0
2018-Feb-10 18:29N 55°38' E 013°01'0 0.0
2018-Feb-10 17:59N 55°38' E 013°01'0 0.0
2018-Feb-10 17:23N 55°38' E 013°01'0 0.0
2018-Feb-10 16:59N 55°38' E 013°01'0 0.0
2018-Feb-10 16:17N 55°38' E 013°01'0 0.0
2018-Feb-10 15:59N 55°38' E 013°01'0 0.0
2018-Feb-10 15:29N 55°38' E 013°01'0 0.0
2018-Feb-10 14:59N 55°38' E 013°01'0 0.0
2018-Feb-10 14:29N 55°38' E 013°01'0 0.0
2018-Feb-10 13:53N 55°38' E 013°01'0 0.0
2018-Feb-10 13:20N 55°38' E 013°01'0 0.0
2018-Feb-10 12:56N 55°38' E 013°01'0 0.0
2018-Feb-10 12:29N 55°38' E 013°01'0 0.0
2018-Feb-10 11:53N 55°38' E 013°01'0 0.0
2018-Feb-10 11:20N 55°38' E 013°01'0 0.0
2018-Feb-10 10:50N 55°38' E 013°01'0 0.0
2018-Feb-10 10:23N 55°38' E 013°01'0 0.0
2018-Feb-10 09:50N 55°38' E 013°01'0 0.0
2018-Feb-10 09:20N 55°38' E 013°01'0 0.0
2018-Feb-10 08:56N 55°38' E 013°01'0 0.0
2018-Feb-10 08:29N 55°38' E 013°01'0 0.0
2018-Feb-10 07:59N 55°38' E 013°01'0 0.0
2018-Feb-10 07:26N 55°38' E 013°01'0 0.0
2018-Feb-10 06:56N 55°38' E 013°01'0 0.0
2018-Feb-10 06:29N 55°38' E 013°01'0 0.0
2018-Feb-10 05:53N 55°38' E 013°01'0 0.0
2018-Feb-10 05:20N 55°38' E 013°01'0 0.0
2018-Feb-10 04:59N 55°38' E 013°01'0 0.0
2018-Feb-10 04:29N 55°38' E 013°01'0 0.0
2018-Feb-10 03:59N 55°38' E 013°01'0 0.0
2018-Feb-10 03:29N 55°38' E 013°01'0 0.0
2018-Feb-10 02:59N 55°38' E 013°01'0 0.0
2018-Feb-10 02:29N 55°38' E 013°01'0 0.0
2018-Feb-10 01:59N 55°38' E 013°01'0 0.0
2018-Feb-10 01:26N 55°38' E 013°01'0 0.0
2018-Feb-10 00:56N 55°38' E 013°01'0 0.0
2018-Feb-10 00:29N 55°38' E 013°01'0 0.0
2018-Feb-09 23:59N 55°38' E 013°01'0 0.0
2018-Feb-09 23:23N 55°38' E 013°01'0 0.0
2018-Feb-09 22:59N 55°38' E 013°01'0 0.0
2018-Feb-09 22:41N 55°38' E 013°01'  
Track history (hours):
 
Tides and Currents Weather Stations Pressure Air Temp Water Temp Dewpoint Dewpoint Depression Visibility Wind Speed Wind Dir Waves Ship Positions

Elisalex Schulte

Last reported at 2018-Feb-19 17:30 UTC. Time now 2018-Feb-19 17:59 UTC.
Position N 49°28' E 000°07'.

Length 144 m; draft 6.2 m.

Type: Tanker. MMSI: 563052000.

Date/timePositionNaut miles runAvg speedWind from/ knotsBaromVisibWave heightAir tempDewpointWater temp
2018-Feb-19 17:30N 49°28' E 000°07'2 3.8
2018-Feb-19 17:00N 49°29' E 000°10'0 0.3
2018-Feb-19 16:30N 49°29' E 000°11'0 0.6
2018-Feb-19 15:59N 49°29' E 000°11'0 0.0
2018-Feb-19 15:29N 49°29' E 000°11'0 0.0
2018-Feb-19 14:59N 49°29' E 000°11'0 0.0
2018-Feb-19 14:29N 49°29' E 000°11'0 0.0
2018-Feb-19 13:59N 49°29' E 000°11'0 0.0
2018-Feb-19 13:29N 49°29' E 000°11'0 0.0
2018-Feb-19 12:59N 49°29' E 000°11'0 0.0
2018-Feb-19 12:29N 49°29' E 000°11'0 0.0
2018-Feb-19 11:59N 49°29' E 000°11'0 0.0
2018-Feb-19 11:29N 49°29' E 000°11'0 0.0
2018-Feb-19 10:59N 49°29' E 000°11'0 0.0
2018-Feb-19 10:29N 49°29' E 000°11'0 0.0
2018-Feb-19 09:56N 49°29' E 000°11'0 0.0
2018-Feb-19 09:29N 49°29' E 000°11'0 0.0
2018-Feb-19 08:56N 49°29' E 000°11'0 0.0
2018-Feb-19 08:29N 49°29' E 000°11'0 0.0
2018-Feb-19 07:59N 49°29' E 000°11'0 0.0
2018-Feb-19 07:29N 49°29' E 000°11'0 0.0
2018-Feb-19 06:59N 49°29' E 000°11'0 0.0
2018-Feb-19 06:29N 49°29' E 000°11'0 0.0
2018-Feb-19 05:59N 49°29' E 000°11'0 0.0
2018-Feb-19 05:29N 49°29' E 000°11'0 0.0
2018-Feb-19 04:59N 49°29' E 000°11'0 0.0
2018-Feb-19 04:29N 49°29' E 000°11'0 0.0
2018-Feb-19 03:59N 49°29' E 000°11'0 0.0
2018-Feb-19 03:29N 49°29' E 000°11'0 0.0
2018-Feb-19 02:59N 49°29' E 000°11'0 0.0
2018-Feb-19 02:29N 49°29' E 000°11'0 0.0
2018-Feb-19 01:59N 49°29' E 000°11'0 0.0
2018-Feb-19 01:29N 49°29' E 000°11'0 0.0
2018-Feb-19 00:59N 49°29' E 000°11'0 0.0
2018-Feb-19 00:29N 49°29' E 000°11'0 0.0
2018-Feb-18 23:59N 49°29' E 000°11'0 0.0
2018-Feb-18 23:29N 49°29' E 000°11'0 0.0
2018-Feb-18 22:59N 49°29' E 000°11'0 0.0
2018-Feb-18 22:29N 49°29' E 000°11'0 0.0
2018-Feb-18 21:59N 49°29' E 000°11'0 0.0
2018-Feb-18 21:29N 49°29' E 000°11'0 0.0
2018-Feb-18 20:59N 49°29' E 000°11'0 0.0
2018-Feb-18 20:29N 49°29' E 000°11'0 0.0
2018-Feb-18 19:59N 49°29' E 000°11'0 0.0
2018-Feb-18 19:30N 49°29' E 000°11'1 1.1
2018-Feb-18 19:00N 49°29' E 000°10'0 0.0
2018-Feb-18 18:30N 49°29' E 000°10'2 4.2
2018-Feb-18 18:00N 49°29' E 000°07'5 9.1
2018-Feb-18 17:30N 49°30' E 000°01'4 8.8
2018-Feb-18 17:00N 49°31' W 000°06'3 5.6
2018-Feb-18 16:30N 49°32' W 000°10'4 8.9
2018-Feb-18 16:00N 49°37' W 000°11'611.1
2018-Feb-18 15:30N 49°42' W 000°11'611.9
2018-Feb-18 15:00N 49°48' W 000°09'611.8
2018-Feb-18 14:29N 49°54' W 000°08'611.9
2018-Feb-18 14:00N 49°60' W 000°07'611.8
2018-Feb-18 13:30N 50°06' W 000°07'611.6
2018-Feb-18 13:00N 50°11' W 000°06'811.4
2018-Feb-18 12:17N 50°20' W 000°04'311.4
2018-Feb-18 12:00N 50°23' W 000°04'5 9.8
2018-Feb-18 11:30N 50°27' W 000°01'510.2
2018-Feb-18 11:00N 50°30' E 000°06'7 9.6
2018-Feb-18 10:19N 50°33' E 000°16'3 9.7
2018-Feb-18 10:00N 50°34' E 000°20'510.0
2018-Feb-18 09:30N 50°36' E 000°27'510.7
2018-Feb-18 09:00N 50°39' E 000°34'611.5
2018-Feb-18 08:30N 50°42' E 000°42'612.5
2018-Feb-18 08:00N 50°45' E 000°50'713.1
2018-Feb-18 07:30N 50°49' E 000°59'713.4
2018-Feb-18 07:00N 50°53' E 001°07'713.5
2018-Feb-18 06:30N 50°58' E 001°15'713.4
2018-Feb-18 06:00N 51°02' E 001°23'612.0
2018-Feb-18 05:30N 51°06' E 001°30'611.4
2018-Feb-18 05:00N 51°10' E 001°37'510.7
2018-Feb-18 04:30N 51°13' E 001°44'510.6
2018-Feb-18 04:00N 51°17' E 001°48'510.1
2018-Feb-18 03:30N 51°22' E 001°52'510.1
2018-Feb-18 03:00N 51°26' E 001°56'510.4
2018-Feb-18 02:30N 51°30' E 002°02'510.7
2018-Feb-18 02:00N 51°34' E 002°07'510.6
2018-Feb-18 01:30N 51°38' E 002°13'611.2
2018-Feb-18 01:00N 51°42' E 002°19'611.8
2018-Feb-18 00:28N 51°47' E 002°26'612.6
2018-Feb-17 23:59N 51°51' E 002°33'134 9.4
2018-Feb-17 09:47N 53°40' E 000°23'714.0
2018-Feb-17 09:19N 53°34' E 000°17'411.1
2018-Feb-17 09:00N 53°32' E 000°12'610.4
2018-Feb-17 08:28N 53°35' E 000°04'511.2
2018-Feb-17 08:00N 53°37' W 000°05'3 6.8
2018-Feb-17 07:30N 53°38' W 000°10'0 0.0
2018-Feb-17 03:20N 53°38' W 000°10'0 0.0
2018-Feb-17 02:50N 53°38' W 000°10'0 0.0
2018-Feb-17 02:29N 53°38' W 000°10'0 0.0
2018-Feb-17 01:59N 53°38' W 000°10'0 0.0
2018-Feb-17 01:29N 53°38' W 000°10'0 0.0
2018-Feb-17 00:59N 53°38' W 000°10'0 0.0
2018-Feb-17 00:29N 53°38' W 000°10'0 0.0
2018-Feb-16 23:59N 53°38' W 000°10'0 0.0
2018-Feb-16 23:29N 53°38' W 000°10'0 0.0
2018-Feb-16 22:53N 53°38' W 000°10'0 0.0
2018-Feb-16 22:26N 53°38' W 000°10'0 0.0
2018-Feb-16 21:56N 53°38' W 000°10'0 0.0
2018-Feb-16 21:02N 53°38' W 000°10'0 0.0
2018-Feb-16 20:47N 53°38' W 000°10'0 0.0
2018-Feb-16 20:08N 53°38' W 000°10'0 0.0
2018-Feb-16 19:59N 53°38' W 000°10'0 0.0
2018-Feb-16 19:26N 53°38' W 000°10'0 0.0
2018-Feb-16 17:53N 53°38' W 000°10'0 0.0
2018-Feb-16 17:29N 53°38' W 000°10'0 0.0
2018-Feb-16 16:26N 53°38' W 000°10'0 0.0
2018-Feb-16 15:56N 53°38' W 000°10'0 0.0
2018-Feb-16 15:23N 53°38' W 000°10'0 0.0
2018-Feb-16 14:59N 53°38' W 000°10'0 0.0
2018-Feb-16 14:29N 53°38' W 000°10'0 0.0
2018-Feb-16 13:59N 53°38' W 000°10'0 0.0
2018-Feb-16 13:20N 53°38' W 000°10'0 0.1
2018-Feb-16 13:00N 53°38' W 000°10'1 2.7
2018-Feb-16 12:30N 53°38' W 000°07'4 8.7
2018-Feb-16 12:00N 53°35' W 000°01'510.0
2018-Feb-16 11:30N 53°34' E 000°07'4 8.3
2018-Feb-16 11:00N 53°33' E 000°14'28 6.2
2018-Feb-16 06:26N 54°01' E 000°07'614.0
2018-Feb-16 06:00N 54°07' E 000°03'714.2
2018-Feb-16 05:30N 54°13' W 000°03'714.4
2018-Feb-16 05:00N 54°20' W 000°08'714.4
2018-Feb-16 04:30N 54°26' W 000°13'714.4
2018-Feb-16 04:00N 54°33' W 000°19'714.3
2018-Feb-16 03:30N 54°39' W 000°24'4013.7
2018-Feb-16 00:34N 55°15' W 000°53'113.4
2018-Feb-16 00:30N 55°16' W 000°54'3512.4
2018-Feb-15 21:38N 55°47' W 001°25'211.5
2018-Feb-15 21:30N 55°48' W 001°27'611.6
2018-Feb-15 21:00N 55°52' W 001°35'611.8
2018-Feb-15 20:30N 55°55' W 001°44'611.8
2018-Feb-15 19:59N 55°58' W 001°53'612.0
2018-Feb-15 19:30N 56°02' W 002°01'612.1
2018-Feb-15 19:00N 56°05' W 002°10'612.1
2018-Feb-15 18:30N 56°08' W 002°20'713.1
2018-Feb-15 18:00N 56°08' W 002°32'713.7
2018-Feb-15 17:30N 56°07' W 002°44'713.8
2018-Feb-15 17:00N 56°05' W 002°56'612.4
2018-Feb-15 16:30N 56°03' W 003°06'5 9.3
2018-Feb-15 16:00N 56°02' W 003°14'510.8
2018-Feb-15 15:30N 56°00' W 003°23'0 0.0
2018-Feb-13 23:36N 56°00' W 003°23'1 9.7
2018-Feb-13 23:28N 56°01' W 003°21'4 9.4
2018-Feb-13 23:00N 56°02' W 003°14'4 8.4
2018-Feb-13 22:30N 56°03' W 003°06'4 8.0
2018-Feb-13 22:00N 56°05' W 002°60'4 7.2
2018-Feb-13 21:30N 56°06' W 002°53'3 6.0
2018-Feb-13 21:00N 56°07' W 002°48'3 6.4
2018-Feb-13 20:30N 56°07' W 002°43'4 7.7
2018-Feb-13 20:00N 56°08' W 002°36'4 8.3
2018-Feb-13 19:30N 56°09' W 002°28'4 8.6
2018-Feb-13 19:00N 56°09' W 002°21'4 8.6
2018-Feb-13 18:30N 56°09' W 002°13'5 9.5
2018-Feb-13 18:00N 56°10' W 002°05'5 9.8
2018-Feb-13 17:30N 56°10' W 001°56'5 9.7
2018-Feb-13 17:00N 56°11' W 001°47'409 9.2
2018-Feb-11 20:23N 57°49' E 010°23'512.2
2018-Feb-11 20:00N 57°49' E 010°31'612.3
2018-Feb-11 19:30N 57°48' E 010°42'611.9
2018-Feb-11 19:00N 57°45' E 010°52'612.6
2018-Feb-11 18:30N 57°41' E 011°01'613.1
2018-Feb-11 18:00N 57°36' E 011°10'713.3
2018-Feb-11 17:30N 57°32' E 011°19'612.8
2018-Feb-11 17:00N 57°27' E 011°27'713.2
2018-Feb-11 16:30N 57°21' E 011°31'713.7
2018-Feb-11 16:00N 57°14' E 011°35'713.5
2018-Feb-11 15:30N 57°08' E 011°39'713.0
2018-Feb-11 14:56N 57°01' E 011°44'4912.8
2018-Feb-11 11:06N 56°15' E 012°14'112.9
2018-Feb-11 10:59N 56°14' E 012°16'713.9
2018-Feb-11 10:31N 56°10' E 012°26'714.5
2018-Feb-11 10:01N 56°05' E 012°36'612.6
2018-Feb-11 09:30N 55°60' E 012°41'510.2
2018-Feb-11 09:00N 55°55' E 012°44'510.4
2018-Feb-11 08:30N 55°50' E 012°46'5 9.9
2018-Feb-11 08:00N 55°46' E 012°52'5 9.3
2018-Feb-11 07:30N 55°42' E 012°54'5 9.1
2018-Feb-11 07:00N 55°39' E 012°60'1 1.8
2018-Feb-11 06:29N 55°38' E 013°01'0 0.0
2018-Feb-11 05:59N 55°38' E 013°01'0 0.0
2018-Feb-11 05:29N 55°38' E 013°01'0 0.0
2018-Feb-11 04:59N 55°38' E 013°01'0 0.0
2018-Feb-11 04:29N 55°38' E 013°01'0 0.0
2018-Feb-11 03:59N 55°38' E 013°01'0 0.0
2018-Feb-11 03:29N 55°38' E 013°01'0 0.0
2018-Feb-11 02:53N 55°38' E 013°01'0 0.0
2018-Feb-11 02:26N 55°38' E 013°01'0 0.0
2018-Feb-11 01:59N 55°38' E 013°01'0 0.0
2018-Feb-11 01:29N 55°38' E 013°01'0 0.0
2018-Feb-11 00:59N 55°38' E 013°01'0 0.0
2018-Feb-11 00:29N 55°38' E 013°01'0 0.0
2018-Feb-10 23:56N 55°38' E 013°01'0 0.0
2018-Feb-10 23:29N 55°38' E 013°01'0 0.0
2018-Feb-10 22:59N 55°38' E 013°01'0 0.0
2018-Feb-10 22:26N 55°38' E 013°01'0 0.0
2018-Feb-10 21:41N 55°38' E 013°01'0 0.0
2018-Feb-10 21:23N 55°38' E 013°01'0 0.0
2018-Feb-10 20:56N 55°38' E 013°01'0 0.0
2018-Feb-10 20:29N 55°38' E 013°01'0 0.0
2018-Feb-10 19:59N 55°38' E 013°01'0 0.0
2018-Feb-10 19:29N 55°38' E 013°01'0 0.0
2018-Feb-10 18:59N 55°38' E 013°01'0 0.0
2018-Feb-10 18:29N 55°38' E 013°01'0 0.0
2018-Feb-10 17:59N 55°38' E 013°01'0 0.0
2018-Feb-10 17:23N 55°38' E 013°01'0 0.0
2018-Feb-10 16:59N 55°38' E 013°01'0 0.0
2018-Feb-10 16:17N 55°38' E 013°01'0 0.0
2018-Feb-10 15:59N 55°38' E 013°01'0 0.0
2018-Feb-10 15:29N 55°38' E 013°01'0 0.0
2018-Feb-10 14:59N 55°38' E 013°01'0 0.0
2018-Feb-10 14:29N 55°38' E 013°01'0 0.0
2018-Feb-10 13:53N 55°38' E 013°01'0 0.0
2018-Feb-10 13:20N 55°38' E 013°01'0 0.0
2018-Feb-10 12:56N 55°38' E 013°01'0 0.0
2018-Feb-10 12:29N 55°38' E 013°01'0 0.0
2018-Feb-10 11:53N 55°38' E 013°01'0 0.0
2018-Feb-10 11:20N 55°38' E 013°01'0 0.0
2018-Feb-10 10:50N 55°38' E 013°01'0 0.0
2018-Feb-10 10:23N 55°38' E 013°01'0 0.0
2018-Feb-10 09:50N 55°38' E 013°01'0 0.0
2018-Feb-10 09:20N 55°38' E 013°01'0 0.0
2018-Feb-10 08:56N 55°38' E 013°01'0 0.0
2018-Feb-10 08:29N 55°38' E 013°01'0 0.0
2018-Feb-10 07:59N 55°38' E 013°01'0 0.0
2018-Feb-10 07:26N 55°38' E 013°01'0 0.0
2018-Feb-10 06:56N 55°38' E 013°01'0 0.0
2018-Feb-10 06:29N 55°38' E 013°01'0 0.0
2018-Feb-10 05:53N 55°38' E 013°01'0 0.0
2018-Feb-10 05:20N 55°38' E 013°01'0 0.0
2018-Feb-10 04:59N 55°38' E 013°01'0 0.0
2018-Feb-10 04:29N 55°38' E 013°01'0 0.0
2018-Feb-10 03:59N 55°38' E 013°01'0 0.0
2018-Feb-10 03:29N 55°38' E 013°01'0 0.0
2018-Feb-10 02:59N 55°38' E 013°01'0 0.0
2018-Feb-10 02:29N 55°38' E 013°01'0 0.0
2018-Feb-10 01:59N 55°38' E 013°01'0 0.0
2018-Feb-10 01:26N 55°38' E 013°01'0 0.0
2018-Feb-10 00:56N 55°38' E 013°01'0 0.0
2018-Feb-10 00:29N 55°38' E 013°01'0 0.0
2018-Feb-09 23:59N 55°38' E 013°01'0 0.0
2018-Feb-09 23:23N 55°38' E 013°01'0 0.0
2018-Feb-09 22:59N 55°38' E 013°01'0 0.0
2018-Feb-09 22:41N 55°38' E 013°01'  

Dump ship's entire track history